Accueil
METAR-TAF:

METAR-TAF

Aéroports :

Aéroport international de Salt Lake City

Salt Lake City, Utah, États-Unis

latitude: 40-46-41N, longitude: 111-58-10W, altitude: 1288 m

Observation

Le bulletin a été fait il y a 29 minutes, à 06:54 UTC
Vent calme
Température -3°C
Humidité 74%
Pression 1029 hPa
Visibilité: 16.1 km
Ciel clair

METAR: KSLC 210654Z 00000KT 10SM CLR M03/M07 A3039 RMK AO2 SLP311 T10331067 400501061

Heure: 00:23 (07:23 UTC)

Prévision

Le bulletin a été fait il y a 2 heures et 0 minutes, à 05:23 UTC
Prévision valable du 21 à 06 UTC au 22 à 12 UTC
Vent 4 kt de sud-est
Visibilité: 10 km
Ciel clair
A partir de 21 à 1900 UTC
Vent 6 kt de nord/nord-ouest
Visibilité: 10 km
Nuages épars à une hauteur de 20000 ft
A partir de 22 à 0500 UTC
Vent 5 kt de sud/sud-est
Visibilité: 10 km
Nuages fragmentés à une hauteur de 20000 ft

TAF: KSLC 210523Z 2106/2212 13004KT P6SM SKC FM211900 33006KT P6SM SCT200 FM220500 15005KT P6SM BKN200

Observations et prévisions météorologiques de plus de 4000 aéroports (messages METAR et TAF).

Les stations disponibles sont représentées par des disques jaunes et rouges sur la carte.

Passer la souris dessus pour voir le nom de la station.

Cliquer dessus pour voir les observations et prévisions météorologiques.

Pour changer de carte: cliquez sur les boutons verts avec une croix noire pour zoomer, sur le bouton vert avec un tiret pour effectuer un zoom arrière, ou sur les flèches vertes pour les cartes adjacentes.


METAR-TAF: